sensor_id;sensor_type;location;lat;lon;timestamp;P1;durP1;ratioP1;P2;durP2;ratioP2
66353;SDS011;53150;48.296;16.452;2022-07-10T00:00:17;5.95;;;3.38;;
66353;SDS011;53150;48.296;16.452;2022-07-10T00:02:46;5.40;;;3.20;;
66353;SDS011;53150;48.296;16.452;2022-07-10T00:05:12;5.57;;;3.00;;
66353;SDS011;53150;48.296;16.452;2022-07-10T00:07:38;5.25;;;3.08;;
66353;SDS011;53150;48.296;16.452;2022-07-10T00:10:05;5.15;;;2.90;;
66353;SDS011;53150;48.296;16.452;2022-07-10T00:12:31;6.53;;;3.17;;
66353;SDS011;53150;48.296;16.452;2022-07-10T00:14:57;5.32;;;3.60;;
66353;SDS011;53150;48.296;16.452;2022-07-10T00:17:23;6.53;;;3.28;;
66353;SDS011;53150;48.296;16.452;2022-07-10T00:19:49;6.75;;;3.50;;
66353;SDS011;53150;48.296;16.452;2022-07-10T00:22:15;5.55;;;3.35;;
66353;SDS011;53150;48.296;16.452;2022-07-10T00:24:41;6.80;;;3.88;;
66353;SDS011;53150;48.296;16.452;2022-07-10T00:27:07;5.55;;;3.22;;
66353;SDS011;53150;48.296;16.452;2022-07-10T00:29:33;8.27;;;4.00;;
66353;SDS011;53150;48.296;16.452;2022-07-10T00:31:59;5.85;;;3.60;;
66353;SDS011;53150;48.296;16.452;2022-07-10T00:34:25;5.43;;;3.58;;
66353;SDS011;53150;48.296;16.452;2022-07-10T00:36:51;6.78;;;3.55;;
66353;SDS011;53150;48.296;16.452;2022-07-10T00:39:17;5.47;;;3.50;;
66353;SDS011;53150;48.296;16.452;2022-07-10T00:41:43;5.47;;;3.15;;
66353;SDS011;53150;48.296;16.452;2022-07-10T00:44:09;5.45;;;3.35;;
66353;SDS011;53150;48.296;16.452;2022-07-10T00:46:35;5.75;;;3.60;;
66353;SDS011;53150;48.296;16.452;2022-07-10T00:49:01;5.90;;;3.60;;
66353;SDS011;53150;48.296;16.452;2022-07-10T00:51:28;6.53;;;3.45;;
66353;SDS011;53150;48.296;16.452;2022-07-10T00:53:56;5.93;;;3.53;;
66353;SDS011;53150;48.296;16.452;2022-07-10T00:56:23;6.38;;;3.47;;
66353;SDS011;53150;48.296;16.452;2022-07-10T00:58:49;6.22;;;4.00;;
66353;SDS011;53150;48.296;16.452;2022-07-10T01:01:15;6.40;;;3.67;;
66353;SDS011;53150;48.296;16.452;2022-07-10T01:03:42;6.15;;;3.67;;
66353;SDS011;53150;48.296;16.452;2022-07-10T01:06:12;5.88;;;3.75;;
66353;SDS011;53150;48.296;16.452;2022-07-10T01:08:38;5.47;;;3.53;;
66353;SDS011;53150;48.296;16.452;2022-07-10T01:11:04;5.90;;;3.97;;
66353;SDS011;53150;48.296;16.452;2022-07-10T01:13:31;5.78;;;3.40;;
66353;SDS011;53150;48.296;16.452;2022-07-10T01:15:57;6.72;;;3.97;;
66353;SDS011;53150;48.296;16.452;2022-07-10T01:18:24;6.15;;;3.90;;
66353;SDS011;53150;48.296;16.452;2022-07-10T01:20:51;6.78;;;4.32;;
66353;SDS011;53150;48.296;16.452;2022-07-10T01:23:18;5.65;;;3.45;;
66353;SDS011;53150;48.296;16.452;2022-07-10T01:25:44;7.55;;;4.10;;
66353;SDS011;53150;48.296;16.452;2022-07-10T01:28:10;7.40;;;3.85;;
66353;SDS011;53150;48.296;16.452;2022-07-10T01:30:36;5.65;;;3.80;;
66353;SDS011;53150;48.296;16.452;2022-07-10T01:33:02;6.05;;;4.25;;
66353;SDS011;53150;48.296;16.452;2022-07-10T01:35:28;5.80;;;3.75;;
66353;SDS011;53150;48.296;16.452;2022-07-10T01:37:54;5.97;;;3.75;;
66353;SDS011;53150;48.296;16.452;2022-07-10T01:40:20;6.50;;;4.05;;
66353;SDS011;53150;48.296;16.452;2022-07-10T01:42:46;7.25;;;4.40;;
66353;SDS011;53150;48.296;16.452;2022-07-10T01:45:12;7.00;;;4.10;;
66353;SDS011;53150;48.296;16.452;2022-07-10T01:47:38;5.20;;;3.40;;
66353;SDS011;53150;48.296;16.452;2022-07-10T01:50:05;6.78;;;4.45;;
66353;SDS011;53150;48.296;16.452;2022-07-10T01:52:31;7.82;;;3.97;;
66353;SDS011;53150;48.296;16.452;2022-07-10T01:54:57;6.32;;;3.85;;
66353;SDS011;53150;48.296;16.452;2022-07-10T01:57:23;6.13;;;3.67;;
66353;SDS011;53150;48.296;16.452;2022-07-10T01:59:49;6.25;;;3.70;;
66353;SDS011;53150;48.296;16.452;2022-07-10T02:02:15;7.82;;;3.80;;
66353;SDS011;53150;48.296;16.452;2022-07-10T02:04:41;6.20;;;3.65;;
66353;SDS011;53150;48.296;16.452;2022-07-10T02:07:16;7.68;;;4.20;;
66353;SDS011;53150;48.296;16.452;2022-07-10T02:09:44;5.43;;;3.63;;
66353;SDS011;53150;48.296;16.452;2022-07-10T02:12:10;6.40;;;3.60;;
66353;SDS011;53150;48.296;16.452;2022-07-10T02:14:36;8.40;;;3.95;;
66353;SDS011;53150;48.296;16.452;2022-07-10T02:17:03;6.78;;;3.50;;
66353;SDS011;53150;48.296;16.452;2022-07-10T02:19:29;6.22;;;3.38;;
66353;SDS011;53150;48.296;16.452;2022-07-10T02:21:56;5.65;;;3.47;;
66353;SDS011;53150;48.296;16.452;2022-07-10T02:24:22;5.93;;;3.70;;
66353;SDS011;53150;48.296;16.452;2022-07-10T02:26:48;5.50;;;3.65;;
66353;SDS011;53150;48.296;16.452;2022-07-10T02:29:14;5.70;;;3.60;;
66353;SDS011;53150;48.296;16.452;2022-07-10T02:31:40;5.18;;;3.38;;
66353;SDS011;53150;48.296;16.452;2022-07-10T02:34:07;7.07;;;3.65;;
66353;SDS011;53150;48.296;16.452;2022-07-10T02:36:33;6.93;;;3.33;;
66353;SDS011;53150;48.296;16.452;2022-07-10T02:38:59;5.85;;;3.35;;
66353;SDS011;53150;48.296;16.452;2022-07-10T02:41:25;6.03;;;3.85;;
66353;SDS011;53150;48.296;16.452;2022-07-10T02:43:51;6.85;;;3.38;;
66353;SDS011;53150;48.296;16.452;2022-07-10T02:46:17;5.78;;;3.60;;
66353;SDS011;53150;48.296;16.452;2022-07-10T02:48:43;5.03;;;3.17;;
66353;SDS011;53150;48.296;16.452;2022-07-10T02:51:09;5.75;;;3.70;;
66353;SDS011;53150;48.296;16.452;2022-07-10T02:53:35;5.82;;;3.60;;
66353;SDS011;53150;48.296;16.452;2022-07-10T02:56:01;5.50;;;3.17;;
66353;SDS011;53150;48.296;16.452;2022-07-10T02:58:28;11.90;;;4.22;;
66353;SDS011;53150;48.296;16.452;2022-07-10T03:00:53;5.75;;;3.30;;
66353;SDS011;53150;48.296;16.452;2022-07-10T03:03:20;5.47;;;3.78;;
66353;SDS011;53150;48.296;16.452;2022-07-10T03:05:46;5.28;;;3.63;;
66353;SDS011;53150;48.296;16.452;2022-07-10T03:08:12;8.38;;;4.18;;
66353;SDS011;53150;48.296;16.452;2022-07-10T03:10:38;5.32;;;3.75;;
66353;SDS011;53150;48.296;16.452;2022-07-10T03:13:05;5.68;;;3.50;;
66353;SDS011;53150;48.296;16.452;2022-07-10T03:15:31;6.97;;;3.78;;
66353;SDS011;53150;48.296;16.452;2022-07-10T03:17:57;5.47;;;3.50;;
66353;SDS011;53150;48.296;16.452;2022-07-10T03:20:23;4.97;;;3.22;;
66353;SDS011;53150;48.296;16.452;2022-07-10T03:22:50;6.75;;;3.60;;
66353;SDS011;53150;48.296;16.452;2022-07-10T03:25:16;6.68;;;3.50;;
66353;SDS011;53150;48.296;16.452;2022-07-10T03:27:42;8.05;;;4.57;;
66353;SDS011;53150;48.296;16.452;2022-07-10T03:30:08;5.95;;;3.70;;
66353;SDS011;53150;48.296;16.452;2022-07-10T03:32:34;7.72;;;3.70;;
66353;SDS011;53150;48.296;16.452;2022-07-10T03:35:00;6.13;;;3.70;;
66353;SDS011;53150;48.296;16.452;2022-07-10T03:37:26;5.63;;;3.60;;
66353;SDS011;53150;48.296;16.452;2022-07-10T03:39:52;5.22;;;3.58;;
66353;SDS011;53150;48.296;16.452;2022-07-10T03:42:18;5.50;;;3.47;;
66353;SDS011;53150;48.296;16.452;2022-07-10T03:44:44;6.20;;;4.30;;
66353;SDS011;53150;48.296;16.452;2022-07-10T03:47:11;5.78;;;3.50;;
66353;SDS011;53150;48.296;16.452;2022-07-10T03:49:37;5.65;;;3.50;;
66353;SDS011;53150;48.296;16.452;2022-07-10T03:52:06;5.32;;;3.40;;
66353;SDS011;53150;48.296;16.452;2022-07-10T03:54:32;6.20;;;3.58;;
66353;SDS011;53150;48.296;16.452;2022-07-10T03:56:59;5.65;;;3.70;;
66353;SDS011;53150;48.296;16.452;2022-07-10T03:59:43;5.57;;;3.70;;
66353;SDS011;53150;48.296;16.452;2022-07-10T04:02:09;6.72;;;3.72;;
66353;SDS011;53150;48.296;16.452;2022-07-10T04:04:35;6.07;;;3.60;;
66353;SDS011;53150;48.296;16.452;2022-07-10T04:07:02;7.22;;;3.53;;
66353;SDS011;53150;48.296;16.452;2022-07-10T04:09:29;8.15;;;3.88;;
66353;SDS011;53150;48.296;16.452;2022-07-10T04:11:55;6.20;;;3.70;;
66353;SDS011;53150;48.296;16.452;2022-07-10T04:14:21;5.47;;;3.50;;
66353;SDS011;53150;48.296;16.452;2022-07-10T04:16:47;6.18;;;3.45;;
66353;SDS011;53150;48.296;16.452;2022-07-10T04:19:13;6.25;;;3.90;;
66353;SDS011;53150;48.296;16.452;2022-07-10T04:21:40;5.70;;;3.58;;
66353;SDS011;53150;48.296;16.452;2022-07-10T04:24:06;6.70;;;4.18;;
66353;SDS011;53150;48.296;16.452;2022-07-10T04:26:32;6.13;;;3.63;;
66353;SDS011;53150;48.296;16.452;2022-07-10T04:28:58;5.82;;;3.40;;
66353;SDS011;53150;48.296;16.452;2022-07-10T04:31:24;6.43;;;3.35;;
66353;SDS011;53150;48.296;16.452;2022-07-10T04:33:50;7.25;;;3.80;;
66353;SDS011;53150;48.296;16.452;2022-07-10T04:36:16;5.88;;;3.78;;
66353;SDS011;53150;48.296;16.452;2022-07-10T04:38:43;5.75;;;3.42;;
66353;SDS011;53150;48.296;16.452;2022-07-10T04:41:09;6.18;;;3.20;;
66353;SDS011;53150;48.296;16.452;2022-07-10T04:43:35;5.78;;;3.25;;
66353;SDS011;53150;48.296;16.452;2022-07-10T04:46:01;7.20;;;3.28;;
66353;SDS011;53150;48.296;16.452;2022-07-10T04:48:27;6.28;;;3.45;;
66353;SDS011;53150;48.296;16.452;2022-07-10T04:50:53;5.57;;;3.10;;
66353;SDS011;53150;48.296;16.452;2022-07-10T04:53:19;4.68;;;2.53;;
66353;SDS011;53150;48.296;16.452;2022-07-10T04:55:45;6.88;;;3.17;;
66353;SDS011;53150;48.296;16.452;2022-07-10T04:58:11;6.13;;;3.92;;
66353;SDS011;53150;48.296;16.452;2022-07-10T05:00:37;5.40;;;3.17;;
66353;SDS011;53150;48.296;16.452;2022-07-10T05:03:03;6.68;;;3.00;;
66353;SDS011;53150;48.296;16.452;2022-07-10T05:05:29;6.57;;;4.20;;
66353;SDS011;53150;48.296;16.452;2022-07-10T05:07:55;5.65;;;3.03;;
66353;SDS011;53150;48.296;16.452;2022-07-10T05:10:21;7.22;;;3.17;;
66353;SDS011;53150;48.296;16.452;2022-07-10T05:12:48;5.70;;;3.35;;
66353;SDS011;53150;48.296;16.452;2022-07-10T05:15:14;5.53;;;3.30;;
66353;SDS011;53150;48.296;16.452;2022-07-10T05:17:40;5.35;;;3.28;;
66353;SDS011;53150;48.296;16.452;2022-07-10T05:20:06;6.75;;;3.38;;
66353;SDS011;53150;48.296;16.452;2022-07-10T05:22:32;6.00;;;2.92;;
66353;SDS011;53150;48.296;16.452;2022-07-10T05:24:58;5.25;;;3.13;;
66353;SDS011;53150;48.296;16.452;2022-07-10T05:27:24;5.90;;;3.38;;
66353;SDS011;53150;48.296;16.452;2022-07-10T05:29:51;6.18;;;3.30;;
66353;SDS011;53150;48.296;16.452;2022-07-10T05:32:18;5.43;;;3.22;;
66353;SDS011;53150;48.296;16.452;2022-07-10T05:34:44;6.90;;;3.70;;
66353;SDS011;53150;48.296;16.452;2022-07-10T05:37:10;6.45;;;3.33;;
66353;SDS011;53150;48.296;16.452;2022-07-10T05:39:36;5.25;;;3.35;;
66353;SDS011;53150;48.296;16.452;2022-07-10T05:42:02;6.22;;;3.03;;
66353;SDS011;53150;48.296;16.452;2022-07-10T05:44:28;6.07;;;3.30;;
66353;SDS011;53150;48.296;16.452;2022-07-10T05:46:54;6.88;;;3.47;;
66353;SDS011;53150;48.296;16.452;2022-07-10T05:49:20;6.10;;;3.22;;
66353;SDS011;53150;48.296;16.452;2022-07-10T05:51:46;5.25;;;3.15;;
66353;SDS011;53150;48.296;16.452;2022-07-10T05:54:12;5.78;;;3.70;;
66353;SDS011;53150;48.296;16.452;2022-07-10T05:56:38;5.95;;;3.58;;
66353;SDS011;53150;48.296;16.452;2022-07-10T05:59:04;5.30;;;3.63;;
66353;SDS011;53150;48.296;16.452;2022-07-10T06:01:30;6.15;;;3.05;;
66353;SDS011;53150;48.296;16.452;2022-07-10T06:03:56;6.55;;;3.67;;
66353;SDS011;53150;48.296;16.452;2022-07-10T06:06:22;6.25;;;3.70;;
66353;SDS011;53150;48.296;16.452;2022-07-10T06:08:48;6.05;;;4.03;;
66353;SDS011;53150;48.296;16.452;2022-07-10T06:11:14;6.18;;;3.30;;
66353;SDS011;53150;48.296;16.452;2022-07-10T06:13:41;5.72;;;3.40;;
66353;SDS011;53150;48.296;16.452;2022-07-10T06:16:07;6.07;;;3.33;;
66353;SDS011;53150;48.296;16.452;2022-07-10T06:18:33;6.22;;;3.58;;
66353;SDS011;53150;48.296;16.452;2022-07-10T06:20:59;5.50;;;3.42;;
66353;SDS011;53150;48.296;16.452;2022-07-10T06:23:25;6.65;;;3.40;;
66353;SDS011;53150;48.296;16.452;2022-07-10T06:25:51;7.90;;;3.83;;
66353;SDS011;53150;48.296;16.452;2022-07-10T06:28:17;5.93;;;3.35;;
66353;SDS011;53150;48.296;16.452;2022-07-10T06:30:44;6.47;;;3.80;;
66353;SDS011;53150;48.296;16.452;2022-07-10T06:33:13;6.50;;;3.55;;
66353;SDS011;53150;48.296;16.452;2022-07-10T06:35:39;6.38;;;3.60;;
66353;SDS011;53150;48.296;16.452;2022-07-10T06:38:05;5.75;;;3.55;;
66353;SDS011;53150;48.296;16.452;2022-07-10T06:40:35;6.10;;;4.10;;
66353;SDS011;53150;48.296;16.452;2022-07-10T06:43:01;5.70;;;3.90;;
66353;SDS011;53150;48.296;16.452;2022-07-10T06:45:27;7.05;;;4.10;;
66353;SDS011;53150;48.296;16.452;2022-07-10T06:47:53;5.38;;;3.50;;
66353;SDS011;53150;48.296;16.452;2022-07-10T06:50:28;6.43;;;4.15;;
66353;SDS011;53150;48.296;16.452;2022-07-10T06:52:59;6.85;;;4.53;;
66353;SDS011;53150;48.296;16.452;2022-07-10T06:55:25;7.20;;;3.80;;
66353;SDS011;53150;48.296;16.452;2022-07-10T06:57:51;6.30;;;3.88;;
66353;SDS011;53150;48.296;16.452;2022-07-10T07:00:18;6.35;;;4.05;;
66353;SDS011;53150;48.296;16.452;2022-07-10T07:02:44;6.43;;;3.67;;
66353;SDS011;53150;48.296;16.452;2022-07-10T07:05:10;8.35;;;3.88;;
66353;SDS011;53150;48.296;16.452;2022-07-10T07:07:36;4.88;;;3.00;;
66353;SDS011;53150;48.296;16.452;2022-07-10T07:10:03;5.68;;;3.28;;
66353;SDS011;53150;48.296;16.452;2022-07-10T07:12:29;6.32;;;3.78;;
66353;SDS011;53150;48.296;16.452;2022-07-10T07:14:55;6.20;;;3.65;;
66353;SDS011;53150;48.296;16.452;2022-07-10T07:17:21;5.63;;;3.78;;
66353;SDS011;53150;48.296;16.452;2022-07-10T07:19:49;5.68;;;3.35;;
66353;SDS011;53150;48.296;16.452;2022-07-10T07:22:34;7.53;;;3.70;;
66353;SDS011;53150;48.296;16.452;2022-07-10T07:25:19;5.93;;;3.85;;
66353;SDS011;53150;48.296;16.452;2022-07-10T07:27:45;6.57;;;3.80;;
66353;SDS011;53150;48.296;16.452;2022-07-10T07:30:12;6.93;;;4.20;;
66353;SDS011;53150;48.296;16.452;2022-07-10T07:32:42;5.97;;;3.75;;
66353;SDS011;53150;48.296;16.452;2022-07-10T07:35:08;7.57;;;4.20;;
66353;SDS011;53150;48.296;16.452;2022-07-10T07:37:44;5.97;;;3.60;;
66353;SDS011;53150;48.296;16.452;2022-07-10T07:40:12;6.78;;;3.80;;
66353;SDS011;53150;48.296;16.452;2022-07-10T07:42:38;7.25;;;3.78;;
66353;SDS011;53150;48.296;16.452;2022-07-10T07:45:06;6.05;;;3.63;;
66353;SDS011;53150;48.296;16.452;2022-07-10T07:47:46;6.53;;;3.40;;
66353;SDS011;53150;48.296;16.452;2022-07-10T07:50:15;7.30;;;3.45;;
66353;SDS011;53150;48.296;16.452;2022-07-10T07:52:42;6.72;;;3.45;;
66353;SDS011;53150;48.296;16.452;2022-07-10T07:55:08;5.40;;;2.60;;
66353;SDS011;53150;48.296;16.452;2022-07-10T07:57:35;5.47;;;3.08;;
66353;SDS011;53150;48.296;16.452;2022-07-10T08:00:02;4.72;;;2.80;;
66353;SDS011;53150;48.296;16.452;2022-07-10T08:02:29;4.60;;;2.50;;
66353;SDS011;53150;48.296;16.452;2022-07-10T08:04:55;5.15;;;2.20;;
66353;SDS011;53150;48.296;16.452;2022-07-10T08:07:21;4.32;;;2.20;;
66353;SDS011;53150;48.296;16.452;2022-07-10T08:09:47;5.82;;;1.80;;
66353;SDS011;53150;48.296;16.452;2022-07-10T08:12:14;4.00;;;2.20;;
66353;SDS011;53150;48.296;16.452;2022-07-10T08:14:40;5.03;;;2.10;;
66353;SDS011;53150;48.296;16.452;2022-07-10T08:17:06;5.93;;;2.58;;
66353;SDS011;53150;48.296;16.452;2022-07-10T08:19:32;4.15;;;2.33;;
66353;SDS011;53150;48.296;16.452;2022-07-10T08:21:58;5.07;;;2.60;;
66353;SDS011;53150;48.296;16.452;2022-07-10T08:24:23;4.50;;;2.38;;
66353;SDS011;53150;48.296;16.452;2022-07-10T08:26:49;5.72;;;2.50;;
66353;SDS011;53150;48.296;16.452;2022-07-10T08:29:15;4.88;;;2.35;;
66353;SDS011;53150;48.296;16.452;2022-07-10T08:31:41;4.00;;;2.30;;
66353;SDS011;53150;48.296;16.452;2022-07-10T08:34:07;6.50;;;2.17;;
66353;SDS011;53150;48.296;16.452;2022-07-10T08:36:36;5.00;;;2.20;;
66353;SDS011;53150;48.296;16.452;2022-07-10T08:39:02;4.05;;;1.95;;
66353;SDS011;53150;48.296;16.452;2022-07-10T08:41:28;5.32;;;2.10;;
66353;SDS011;53150;48.296;16.452;2022-07-10T08:43:54;4.93;;;1.80;;
66353;SDS011;53150;48.296;16.452;2022-07-10T08:46:20;4.95;;;2.22;;
66353;SDS011;53150;48.296;16.452;2022-07-10T08:48:47;3.78;;;2.08;;
66353;SDS011;53150;48.296;16.452;2022-07-10T08:51:16;4.63;;;2.15;;
66353;SDS011;53150;48.296;16.452;2022-07-10T08:53:46;5.72;;;2.60;;
66353;SDS011;53150;48.296;16.452;2022-07-10T08:56:15;5.25;;;2.22;;
66353;SDS011;53150;48.296;16.452;2022-07-10T08:58:43;6.70;;;2.17;;
66353;SDS011;53150;48.296;16.452;2022-07-10T09:01:09;4.97;;;1.95;;
66353;SDS011;53150;48.296;16.452;2022-07-10T09:03:35;4.30;;;2.28;;
66353;SDS011;53150;48.296;16.452;2022-07-10T09:06:04;5.10;;;2.25;;
66353;SDS011;53150;48.296;16.452;2022-07-10T09:08:30;3.65;;;1.77;;
66353;SDS011;53150;48.296;16.452;2022-07-10T09:11:17;6.80;;;2.20;;
66353;SDS011;53150;48.296;16.452;2022-07-10T09:13:53;5.88;;;2.40;;
66353;SDS011;53150;48.296;16.452;2022-07-10T09:16:23;5.90;;;2.17;;
66353;SDS011;53150;48.296;16.452;2022-07-10T09:18:49;4.10;;;2.13;;
66353;SDS011;53150;48.296;16.452;2022-07-10T09:21:15;4.65;;;2.17;;
66353;SDS011;53150;48.296;16.452;2022-07-10T09:23:41;5.18;;;2.15;;
66353;SDS011;53150;48.296;16.452;2022-07-10T09:26:08;5.20;;;2.17;;
66353;SDS011;53150;48.296;16.452;2022-07-10T09:28:34;4.97;;;2.35;;
66353;SDS011;53150;48.296;16.452;2022-07-10T09:31:00;4.57;;;2.10;;
66353;SDS011;53150;48.296;16.452;2022-07-10T09:33:27;6.10;;;2.88;;
66353;SDS011;53150;48.296;16.452;2022-07-10T09:36:06;5.32;;;2.42;;
66353;SDS011;53150;48.296;16.452;2022-07-10T09:41:25;4.13;;;2.05;;
66353;SDS011;53150;48.296;16.452;2022-07-10T09:43:58;6.30;;;2.40;;
66353;SDS011;53150;48.296;16.452;2022-07-10T09:46:30;5.10;;;2.20;;
66353;SDS011;53150;48.296;16.452;2022-07-10T09:49:09;4.63;;;2.55;;
66353;SDS011;53150;48.296;16.452;2022-07-10T09:51:39;5.40;;;2.33;;
66353;SDS011;53150;48.296;16.452;2022-07-10T09:54:06;5.57;;;2.63;;
66353;SDS011;53150;48.296;16.452;2022-07-10T09:56:34;4.30;;;2.30;;
66353;SDS011;53150;48.296;16.452;2022-07-10T09:59:06;4.88;;;2.20;;
66353;SDS011;53150;48.296;16.452;2022-07-10T10:01:34;5.55;;;2.47;;
66353;SDS011;53150;48.296;16.452;2022-07-10T10:04:00;5.00;;;2.30;;
66353;SDS011;53150;48.296;16.452;2022-07-10T10:06:29;5.40;;;2.25;;
66353;SDS011;53150;48.296;16.452;2022-07-10T10:11:35;4.97;;;2.47;;
66353;SDS011;53150;48.296;16.452;2022-07-10T10:14:04;5.97;;;2.65;;
66353;SDS011;53150;48.296;16.452;2022-07-10T10:16:31;5.05;;;2.55;;
66353;SDS011;53150;48.296;16.452;2022-07-10T10:18:59;5.20;;;2.67;;
66353;SDS011;53150;48.296;16.452;2022-07-10T10:21:43;5.45;;;2.22;;
66353;SDS011;53150;48.296;16.452;2022-07-10T10:24:10;5.57;;;2.30;;
66353;SDS011;53150;48.296;16.452;2022-07-10T10:26:36;4.00;;;2.00;;
66353;SDS011;53150;48.296;16.452;2022-07-10T10:29:03;6.18;;;2.35;;
66353;SDS011;53150;48.296;16.452;2022-07-10T10:31:31;4.45;;;2.08;;
66353;SDS011;53150;48.296;16.452;2022-07-10T10:33:58;4.65;;;2.30;;
66353;SDS011;53150;48.296;16.452;2022-07-10T10:39:09;4.18;;;1.98;;
66353;SDS011;53150;48.296;16.452;2022-07-10T10:41:38;4.45;;;2.00;;
66353;SDS011;53150;48.296;16.452;2022-07-10T10:46:34;4.80;;;2.47;;
66353;SDS011;53150;48.296;16.452;2022-07-10T10:49:06;4.50;;;2.08;;
66353;SDS011;53150;48.296;16.452;2022-07-10T10:51:55;3.80;;;2.10;;
66353;SDS011;53150;48.296;16.452;2022-07-10T10:54:22;6.13;;;2.40;;
66353;SDS011;53150;48.296;16.452;2022-07-10T11:02:20;5.10;;;2.10;;
66353;SDS011;53150;48.296;16.452;2022-07-10T11:04:47;3.90;;;1.83;;
66353;SDS011;53150;48.296;16.452;2022-07-10T11:07:14;4.07;;;1.88;;
66353;SDS011;53150;48.296;16.452;2022-07-10T11:12:56;4.45;;;1.90;;
66353;SDS011;53150;48.296;16.452;2022-07-10T11:15:23;4.18;;;1.88;;
66353;SDS011;53150;48.296;16.452;2022-07-10T11:17:50;4.93;;;1.80;;
66353;SDS011;53150;48.296;16.452;2022-07-10T11:20:16;3.95;;;1.48;;
66353;SDS011;53150;48.296;16.452;2022-07-10T11:22:43;3.78;;;1.60;;
66353;SDS011;53150;48.296;16.452;2022-07-10T11:30:24;5.28;;;1.98;;
66353;SDS011;53150;48.296;16.452;2022-07-10T11:32:50;4.15;;;1.83;;
66353;SDS011;53150;48.296;16.452;2022-07-10T11:35:16;4.03;;;1.70;;
66353;SDS011;53150;48.296;16.452;2022-07-10T11:37:49;3.70;;;1.52;;
66353;SDS011;53150;48.296;16.452;2022-07-10T11:40:15;4.43;;;1.60;;
66353;SDS011;53150;48.296;16.452;2022-07-10T11:42:51;7.85;;;3.67;;
66353;SDS011;53150;48.296;16.452;2022-07-10T11:45:25;3.55;;;2.00;;
66353;SDS011;53150;48.296;16.452;2022-07-10T11:47:51;4.30;;;1.63;;
66353;SDS011;53150;48.296;16.452;2022-07-10T11:50:17;3.90;;;1.58;;
66353;SDS011;53150;48.296;16.452;2022-07-10T11:52:43;3.97;;;1.52;;
66353;SDS011;53150;48.296;16.452;2022-07-10T11:55:18;4.05;;;1.70;;
66353;SDS011;53150;48.296;16.452;2022-07-10T11:57:44;3.78;;;1.27;;
66353;SDS011;53150;48.296;16.452;2022-07-10T12:00:34;6.20;;;1.48;;
66353;SDS011;53150;48.296;16.452;2022-07-10T12:03:15;4.30;;;1.70;;
66353;SDS011;53150;48.296;16.452;2022-07-10T12:05:42;4.10;;;1.52;;
66353;SDS011;53150;48.296;16.452;2022-07-10T12:08:08;2.90;;;1.40;;
66353;SDS011;53150;48.296;16.452;2022-07-10T12:10:34;2.72;;;1.33;;
66353;SDS011;53150;48.296;16.452;2022-07-10T12:13:18;4.03;;;1.42;;
66353;SDS011;53150;48.296;16.452;2022-07-10T12:15:45;3.25;;;1.60;;
66353;SDS011;53150;48.296;16.452;2022-07-10T12:18:15;4.50;;;1.50;;
66353;SDS011;53150;48.296;16.452;2022-07-10T12:20:43;4.15;;;1.58;;
66353;SDS011;53150;48.296;16.452;2022-07-10T12:23:12;4.78;;;1.40;;
66353;SDS011;53150;48.296;16.452;2022-07-10T12:25:41;4.05;;;1.25;;
66353;SDS011;53150;48.296;16.452;2022-07-10T12:28:07;4.90;;;2.17;;
66353;SDS011;53150;48.296;16.452;2022-07-10T12:30:37;5.50;;;1.50;;
66353;SDS011;53150;48.296;16.452;2022-07-10T12:33:07;4.80;;;1.65;;
66353;SDS011;53150;48.296;16.452;2022-07-10T12:35:44;5.68;;;2.35;;
66353;SDS011;53150;48.296;16.452;2022-07-10T12:38:14;3.90;;;1.58;;
66353;SDS011;53150;48.296;16.452;2022-07-10T12:40:40;3.22;;;1.50;;
66353;SDS011;53150;48.296;16.452;2022-07-10T12:43:06;4.07;;;1.40;;
66353;SDS011;53150;48.296;16.452;2022-07-10T12:45:33;4.03;;;1.55;;
66353;SDS011;53150;48.296;16.452;2022-07-10T12:47:59;4.80;;;1.60;;
66353;SDS011;53150;48.296;16.452;2022-07-10T12:50:29;2.95;;;1.50;;
66353;SDS011;53150;48.296;16.452;2022-07-10T12:53:07;4.22;;;1.60;;
66353;SDS011;53150;48.296;16.452;2022-07-10T12:55:37;4.65;;;1.65;;
66353;SDS011;53150;48.296;16.452;2022-07-10T12:58:10;3.40;;;1.23;;
66353;SDS011;53150;48.296;16.452;2022-07-10T13:00:43;3.50;;;1.30;;
66353;SDS011;53150;48.296;16.452;2022-07-10T13:03:10;3.80;;;1.42;;
66353;SDS011;53150;48.296;16.452;2022-07-10T13:05:37;4.72;;;1.50;;
66353;SDS011;53150;48.296;16.452;2022-07-10T13:08:17;3.67;;;1.85;;
66353;SDS011;53150;48.296;16.452;2022-07-10T13:13:16;6.00;;;1.83;;
66353;SDS011;53150;48.296;16.452;2022-07-10T13:15:42;3.53;;;1.38;;
66353;SDS011;53150;48.296;16.452;2022-07-10T13:18:18;3.20;;;1.52;;
66353;SDS011;53150;48.296;16.452;2022-07-10T13:20:46;2.88;;;1.40;;
66353;SDS011;53150;48.296;16.452;2022-07-10T13:23:12;3.75;;;1.33;;
66353;SDS011;53150;48.296;16.452;2022-07-10T13:25:39;4.70;;;1.48;;
66353;SDS011;53150;48.296;16.452;2022-07-10T13:28:06;4.18;;;1.40;;
66353;SDS011;53150;48.296;16.452;2022-07-10T13:30:32;3.42;;;1.30;;
66353;SDS011;53150;48.296;16.452;2022-07-10T13:32:58;10.35;;;2.42;;
66353;SDS011;53150;48.296;16.452;2022-07-10T13:35:27;3.95;;;1.30;;
66353;SDS011;53150;48.296;16.452;2022-07-10T13:37:56;4.07;;;1.58;;
66353;SDS011;53150;48.296;16.452;2022-07-10T13:40:28;5.25;;;1.63;;
66353;SDS011;53150;48.296;16.452;2022-07-10T13:42:55;3.20;;;1.40;;
66353;SDS011;53150;48.296;16.452;2022-07-10T13:45:21;4.85;;;1.58;;
66353;SDS011;53150;48.296;16.452;2022-07-10T13:47:49;3.78;;;1.80;;
66353;SDS011;53150;48.296;16.452;2022-07-10T13:50:15;2.38;;;1.10;;
66353;SDS011;53150;48.296;16.452;2022-07-10T13:52:41;3.95;;;1.40;;
66353;SDS011;53150;48.296;16.452;2022-07-10T13:55:07;2.67;;;1.40;;
66353;SDS011;53150;48.296;16.452;2022-07-10T13:57:33;3.03;;;1.40;;
66353;SDS011;53150;48.296;16.452;2022-07-10T13:59:59;3.20;;;1.33;;
66353;SDS011;53150;48.296;16.452;2022-07-10T14:02:25;3.53;;;1.50;;
66353;SDS011;53150;48.296;16.452;2022-07-10T14:04:51;3.92;;;1.40;;
66353;SDS011;53150;48.296;16.452;2022-07-10T14:07:17;2.97;;;1.38;;
66353;SDS011;53150;48.296;16.452;2022-07-10T14:09:43;5.20;;;1.90;;
66353;SDS011;53150;48.296;16.452;2022-07-10T14:12:09;3.67;;;1.35;;
66353;SDS011;53150;48.296;16.452;2022-07-10T14:14:36;3.72;;;1.40;;
66353;SDS011;53150;48.296;16.452;2022-07-10T14:17:02;3.08;;;1.30;;
66353;SDS011;53150;48.296;16.452;2022-07-10T14:19:28;3.00;;;1.27;;
66353;SDS011;53150;48.296;16.452;2022-07-10T14:21:54;2.97;;;1.17;;
66353;SDS011;53150;48.296;16.452;2022-07-10T14:24:21;4.07;;;1.55;;
66353;SDS011;53150;48.296;16.452;2022-07-10T14:26:47;2.97;;;1.33;;
66353;SDS011;53150;48.296;16.452;2022-07-10T14:29:13;4.47;;;1.92;;
66353;SDS011;53150;48.296;16.452;2022-07-10T14:31:39;3.13;;;1.30;;
66353;SDS011;53150;48.296;16.452;2022-07-10T14:34:05;3.65;;;1.40;;
66353;SDS011;53150;48.296;16.452;2022-07-10T14:36:31;3.38;;;1.40;;
66353;SDS011;53150;48.296;16.452;2022-07-10T14:38:58;3.85;;;1.45;;
66353;SDS011;53150;48.296;16.452;2022-07-10T14:41:24;3.67;;;1.27;;
66353;SDS011;53150;48.296;16.452;2022-07-10T14:43:50;3.92;;;1.60;;
66353;SDS011;53150;48.296;16.452;2022-07-10T14:46:17;3.65;;;1.60;;
66353;SDS011;53150;48.296;16.452;2022-07-10T14:48:43;5.07;;;1.50;;
66353;SDS011;53150;48.296;16.452;2022-07-10T14:51:09;4.25;;;1.63;;
66353;SDS011;53150;48.296;16.452;2022-07-10T14:53:35;3.85;;;1.60;;
66353;SDS011;53150;48.296;16.452;2022-07-10T14:56:02;4.25;;;1.45;;
66353;SDS011;53150;48.296;16.452;2022-07-10T14:58:28;4.25;;;1.65;;
66353;SDS011;53150;48.296;16.452;2022-07-10T15:00:54;3.50;;;1.52;;